Time;durP1;ratioP1;P1;durP2;ratioP2;P2;SDS_P1;SDS_P2;PMS_P1;PMS_P2;Temp;Humidity;BMP_temperature;BMP_pressure;BME280_temperature;BME280_humidity;BME280_pressure;Samples;Min_cycle;Max_cycle;Signal;HPM_P1;HPM_P2
2022/05/13 00:00:09;;;;;;;13.55;2.40;;;;;;;11.58;100.00;98928.16;4371654;32;20043;-79
2022/05/13 00:02:56;;;;;;;15.80;2.47;;;;;;;11.56;100.00;98914.09;4370302;32;20043;-79
2022/05/13 00:05:23;;;;;;;8.52;2.85;;;;;;;11.70;100.00;98941.44;4371133;32;20043;-79
2022/05/13 00:07:50;;;;;;;9.10;3.92;;;;;;;11.74;100.00;98952.53;4359123;32;20482;-79
2022/05/13 00:10:17;;;;;;;5.28;2.58;;;;;;;11.57;100.00;98915.75;4356273;32;20024;-80
2022/05/13 00:12:44;;;;;;;4.22;2.55;;;;;;;11.83;100.00;98953.66;4372501;32;20019;-80
2022/05/13 00:15:15;;;;;;;4.05;2.60;;;;;;;11.78;100.00;98916.69;4372517;32;20035;-79
2022/05/13 00:17:42;;;;;;;7.85;2.50;;;;;;;12.12;100.00;98942.53;4371397;32;20030;-79
2022/05/13 00:20:11;;;;;;;29.98;2.70;;;;;;;12.25;100.00;98952.84;4371267;32;20413;-81
2022/05/13 00:22:46;;;;;;;8.07;2.37;;;;;;;12.32;100.00;98955.34;4372055;32;20059;-79
2022/05/13 00:25:16;;;;;;;17.83;2.60;;;;;;;12.37;100.00;98954.56;4371876;32;20196;-80
2022/05/13 00:27:43;;;;;;;13.80;2.70;;;;;;;12.36;100.00;98953.72;4369166;32;20047;-83
2022/05/13 00:30:10;;;;;;;6.78;2.42;;;;;;;12.09;100.00;98911.47;4370814;32;20077;-80
2022/05/13 00:32:36;;;;;;;8.10;2.22;;;;;;;12.34;100.00;98958.56;4372104;32;20082;-80
2022/05/13 00:35:04;;;;;;;12.70;2.90;;;;;;;12.33;100.00;98948.84;4370598;32;20051;-80
2022/05/13 00:37:37;;;;;;;5.47;3.83;;;;;;;12.34;100.00;98950.47;4371218;32;20386;-83
2022/05/13 00:40:05;;;;;;;9.85;2.65;;;;;;;12.35;100.00;98957.50;4371510;32;20062;-81
2022/05/13 00:42:31;;;;;;;8.20;2.10;;;;;;;12.38;100.00;98945.34;4372548;32;20035;-80
2022/05/13 00:44:58;;;;;;;17.42;2.67;;;;;;;12.10;100.00;98917.69;4372745;32;20035;-79
2022/05/13 00:47:25;;;;;;;9.63;2.83;;;;;;;12.19;100.00;98959.31;4372409;32;20065;-79
2022/05/13 00:49:55;;;;;;;4.80;2.80;;;;;;;11.79;100.00;98914.78;4371319;32;20057;-80
2022/05/13 00:52:23;;;;;;;5.55;2.20;;;;;;;12.12;100.00;98958.72;4370807;32;20418;-79
2022/05/13 00:54:50;;;;;;;9.90;2.92;;;;;;;12.17;100.00;98946.09;4370796;32;20081;-79
2022/05/13 00:57:18;;;;;;;9.85;2.65;;;;;;;12.17;100.00;98956.06;4371160;32;20113;-79
2022/05/13 00:59:53;;;;;;;2.90;2.30;;;;;;;12.16;100.00;98949.84;4366962;32;20085;-79
2022/05/13 01:02:19;;;;;;;18.35;3.30;;;;;;;12.01;100.00;98924.66;4358286;32;20039;-79
2022/05/13 01:04:46;;;;;;;13.62;2.92;;;;;;;12.28;100.00;98948.81;4371641;32;20100;-79
2022/05/13 01:07:17;;;;;;;3.60;2.78;;;;;;;12.25;100.00;98947.44;4371824;32;20036;-79
2022/05/13 01:09:47;;;;;;;;;;;;;;;12.12;100.00;98958.72;4370370;32;20061;-79
2022/05/13 01:12:20;;;;;;;11.52;2.72;;;;;;;12.10;100.00;98955.50;4371541;32;19930;-79
2022/05/13 01:14:55;;;;;;;7.93;3.42;;;;;;;11.94;100.00;98941.91;4358053;32;20039;-80
2022/05/13 01:20:18;;;;;;;3.90;2.30;;;;;;;11.61;100.00;98927.63;4370539;32;20035;-80
2022/05/13 01:22:48;;;;;;;7.12;2.92;;;;;;;11.36;100.00;98916.63;4370634;32;20031;-80
2022/05/13 01:25:24;;;;;;;6.70;2.45;;;;;;;11.45;100.00;98950.16;4369603;32;20047;-81
2022/05/13 01:27:52;;;;;;;5.82;3.15;;;;;;;11.35;100.00;98950.06;4371635;32;20031;-81
2022/05/13 01:30:25;;;;;;;5.72;2.55;;;;;;;11.21;100.00;98953.19;4371209;32;20047;-81
2022/05/13 01:32:52;;;;;;;4.05;2.58;;;;;;;11.06;100.00;98942.28;4370174;32;20044;-81
2022/05/13 01:35:20;;;;;;;6.80;2.10;;;;;;;11.07;100.00;98952.78;4371014;32;20093;-80
2022/05/13 01:37:47;;;;;;;11.98;3.08;;;;;;;11.01;100.00;98961.06;4370308;32;20381;-80
2022/05/13 01:40:13;;;;;;;7.40;2.50;;;;;;;10.92;100.00;98946.44;4371382;32;20365;-81
2022/05/13 01:42:41;;;;;;;7.40;3.62;;;;;;;10.83;100.00;98948.75;4370335;32;20069;-81
2022/05/13 01:45:09;;;;;;;7.65;2.60;;;;;;;10.54;100.00;98898.63;4371300;32;20055;-81
2022/05/13 01:47:35;;;;;;;9.50;3.10;;;;;;;10.80;100.00;98943.88;4371344;32;20027;-80
2022/05/13 01:50:05;;;;;;;6.78;3.47;;;;;;;10.71;100.00;98946.22;4372780;32;20467;-78
2022/05/13 01:52:32;;;;;;;6.05;2.95;;;;;;;10.63;100.00;98950.16;4354477;32;20036;-83
2022/05/13 01:54:58;;;;;;;5.10;2.80;;;;;;;10.44;100.00;98914.69;4357461;32;20032;-78
2022/05/13 01:57:24;;;;;;;7.35;2.92;;;;;;;10.60;100.00;98936.41;4359444;32;20048;-79
2022/05/13 01:59:51;;;;;;;8.73;2.97;;;;;;;10.49;100.00;98925.50;4358279;32;20035;-78
2022/05/13 02:02:17;;;;;;;4.00;2.30;;;;;;;10.47;100.00;98924.94;4358862;32;20023;-78
2022/05/13 02:04:44;;;;;;;8.82;3.03;;;;;;;10.54;100.00;98944.41;4372431;32;20061;-79
2022/05/13 02:07:10;;;;;;;8.82;3.55;;;;;;;10.57;100.00;98939.59;4373874;32;20109;-79
2022/05/13 02:09:36;;;;;;;6.18;2.75;;;;;;;10.07;100.00;98861.47;4359959;32;20043;-78
2022/05/13 02:12:03;;;;;;;7.93;3.50;;;;;;;10.31;100.00;98898.91;4373400;32;20073;-79
2022/05/13 02:14:30;;;;;;;5.20;2.55;;;;;;;10.07;100.00;98866.84;4371575;32;20392;-80
2022/05/13 02:16:56;;;;;;;9.50;2.65;;;;;;;10.34;100.00;98909.19;4373684;32;20055;-80
2022/05/13 02:19:23;;;;;;;6.97;2.53;;;;;;;10.33;100.00;98915.62;4345187;32;20073;-80
2022/05/13 02:21:50;;;;;;;6.85;3.12;;;;;;;10.43;100.00;98934.56;4361487;32;20051;-80
2022/05/13 02:24:16;;;;;;;7.22;3.25;;;;;;;10.46;100.00;98928.69;4373643;32;20051;-80
2022/05/13 02:26:43;;;;;;;7.90;3.45;;;;;;;10.30;100.00;98908.81;4371661;32;20475;-81
2022/05/13 02:29:09;;;;;;;3.53;2.55;;;;;;;10.22;100.00;98884.25;4373676;32;20059;-80
2022/05/13 02:31:36;;;;;;;10.05;3.22;;;;;;;10.45;100.00;98932.47;4373175;32;20149;-80
2022/05/13 02:34:02;;;;;;;6.70;3.30;;;;;;;10.37;100.00;98919.47;4360124;32;20357;-80
2022/05/13 02:36:29;;;;;;;5.12;2.97;;;;;;;10.22;100.00;98911.16;4373519;32;20069;-80
2022/05/13 02:38:55;;;;;;;6.37;3.08;;;;;;;10.02;100.00;98880.25;4371287;32;20040;-80
2022/05/13 02:41:21;;;;;;;5.72;3.30;;;;;;;10.29;100.00;98912.59;4373248;32;20422;-79
2022/05/13 02:43:51;;;;;;;7.12;2.53;;;;;;;9.99;100.00;98870.00;4373759;32;20415;-80
2022/05/13 02:46:20;;;;;;;6.30;3.30;;;;;;;10.09;100.00;98897.00;4360165;32;20024;-79
2022/05/13 02:48:47;;;;;;;8.15;3.00;;;;;;;10.21;100.00;98925.66;4370617;32;20077;-79
2022/05/13 02:51:15;;;;;;;6.05;2.78;;;;;;;10.09;100.00;98923.09;4373834;32;20079;-78
2022/05/13 02:53:42;;;;;;;6.28;2.50;;;;;;;10.02;100.00;98922.44;4373692;32;20039;-79
2022/05/13 02:56:09;;;;;;;9.13;2.92;;;;;;;9.71;100.00;98890.56;4373030;32;20092;-80
2022/05/13 02:58:37;;;;;;;7.07;2.90;;;;;;;9.79;100.00;98914.34;4371829;32;20087;-81
2022/05/13 03:01:06;;;;;;;9.57;3.15;;;;;;;9.87;100.00;98915.00;4372478;32;20061;-78
2022/05/13 03:03:33;;;;;;;9.13;2.80;;;;;;;9.81;100.00;98920.31;4358653;32;20065;-79
2022/05/13 03:05:59;;;;;;;14.18;3.25;;;;;;;9.70;100.00;98912.34;4373240;32;20040;-79
2022/05/13 03:08:26;;;;;;;6.93;3.42;;;;;;;9.41;100.00;98872.97;4356999;32;20402;-79
2022/05/13 03:10:52;;;;;;;7.03;3.70;;;;;;;9.37;100.00;98874.50;4356570;32;20089;-81
2022/05/13 03:13:19;;;;;;;5.82;3.28;;;;;;;9.61;100.00;98917.31;4369797;32;20035;-79
2022/05/13 03:15:47;;;;;;;12.00;3.03;;;;;;;9.54;100.00;98924.72;4373309;32;20086;-79
2022/05/13 03:18:14;;;;;;;7.93;3.40;;;;;;;9.24;100.00;98880.22;4373521;32;20463;-79
2022/05/13 03:20:40;;;;;;;7.45;3.78;;;;;;;9.23;100.00;98883.94;4372280;32;20069;-80
2022/05/13 03:23:07;;;;;;;5.78;3.40;;;;;;;9.16;100.00;98872.53;4371302;32;20061;-82
2022/05/13 03:25:34;;;;;;;9.60;5.30;;;;;;;9.26;100.00;98888.84;4372871;32;20056;-81
2022/05/13 03:28:00;;;;;;;5.95;3.58;;;;;;;9.33;100.00;98913.66;4356145;32;20062;-79
2022/05/13 03:30:26;;;;;;;12.35;3.87;;;;;;;9.24;100.00;98891.75;4363932;32;20047;-78
2022/05/13 03:32:54;;;;;;;7.03;3.28;;;;;;;9.32;100.00;98908.53;4369872;32;20036;-81
2022/05/13 03:35:22;;;;;;;6.30;3.12;;;;;;;9.05;100.00;98867.00;4373001;32;20048;-79
2022/05/13 03:37:55;;;;;;;8.20;3.37;;;;;;;9.30;100.00;98900.69;4359509;32;20040;-78
2022/05/13 03:40:22;;;;;;;6.65;3.58;;;;;;;9.33;100.00;98905.59;4372822;32;20040;-79
2022/05/13 03:42:48;;;;;;;8.70;3.97;;;;;;;9.36;100.00;98904.31;4369323;32;20040;-80
2022/05/13 03:45:18;;;;;;;7.00;3.83;;;;;;;9.11;100.00;98864.41;4359264;32;20822;-79
2022/05/13 03:47:45;;;;;;;15.18;4.07;;;;;;;9.41;100.00;98902.53;4359102;32;20036;-79
2022/05/13 03:50:12;;;;;;;9.25;2.87;;;;;;;9.41;100.00;98897.16;4358988;32;20053;-79
2022/05/13 03:52:39;;;;;;;17.02;4.43;;;;;;;9.40;100.00;98892.00;4371517;32;20039;-81
2022/05/13 03:55:07;;;;;;;10.02;3.80;;;;;;;9.22;100.00;98860.81;4369535;32;20112;-80
2022/05/13 03:57:33;;;;;;;10.45;3.65;;;;;;;9.58;100.00;98907.06;4372368;32;20082;-80
2022/05/13 04:00:00;;;;;;;10.75;4.60;;;;;;;9.70;100.00;98904.25;4370557;32;20077;-80
2022/05/13 04:02:28;;;;;;;12.27;3.12;;;;;;;9.84;100.00;98904.75;4371968;32;20080;-80
2022/05/13 04:10:25;;;;;;;6.25;3.65;;;;;;;9.99;100.00;98876.16;4370759;32;20043;-81
2022/05/13 04:18:21;;;;;;;8.07;4.35;;;;;;;10.63;100.00;98923.25;4371654;32;20405;-79
2022/05/13 04:20:48;;;;;;;10.73;4.43;;;;;;;10.70;100.00;98906.88;4371508;32;20043;-79
2022/05/13 04:23:16;;;;;;;9.63;3.15;;;;;;;10.95;100.00;98919.81;4371008;32;20065;-78
2022/05/13 04:25:43;;;;;;;13.35;4.15;;;;;;;10.66;100.00;98851.94;4370924;32;20058;-83
2022/05/13 04:28:10;;;;;;;10.63;3.62;;;;;;;11.19;100.00;98919.47;4372066;32;20043;-78
2022/05/13 04:30:36;;;;;;;16.52;3.35;;;;;;;11.19;100.00;98909.50;4372156;32;20105;-78
2022/05/13 04:33:03;;;;;;;8.93;3.30;;;;;;;11.07;100.00;98858.50;4372823;32;20064;-79
2022/05/13 04:35:30;;;;;;;14.57;3.22;;;;;;;11.67;100.00;98903.41;4373066;32;20048;-79
2022/05/13 04:37:56;;;;;;;12.70;2.95;;;;;;;11.57;100.00;98866.41;4370331;32;20057;-80
2022/05/13 04:40:23;;;;;;;11.98;3.62;;;;;;;11.98;100.00;98910.63;4372900;32;20085;-79
2022/05/13 04:42:50;;;;;;;9.77;3.17;;;;;;;12.07;100.00;98907.44;4370586;32;20068;-79
2022/05/13 04:45:23;;;;;;;8.43;3.22;;;;;;;12.16;100.00;98905.88;4371953;32;20074;-79
2022/05/13 04:50:50;;;;;;;18.65;3.03;;;;;;;12.06;100.00;98884.22;4372587;32;20376;-78
2022/05/13 04:53:22;;;;;;;11.27;3.15;;;;;;;12.43;100.00;98912.97;4368940;32;20059;-79
2022/05/13 04:55:50;;;;;;;8.73;3.40;;;;;;;12.51;100.00;98909.78;4372128;32;20445;-79
2022/05/13 04:58:17;;;;;;;7.18;2.50;;;;;;;12.58;100.00;98904.94;4372453;32;20073;-79
2022/05/13 05:00:46;;;;;;;12.95;2.08;;;;;;;12.61;100.00;98900.91;4371800;32;20039;-87
2022/05/13 05:03:13;;;;;;;13.85;2.85;;;;;;;12.76;100.00;98908.22;4369922;32;20040;-78
2022/05/13 05:05:42;;;;;;;10.13;2.70;;;;;;;12.84;100.00;98910.37;4371264;32;20035;-79
2022/05/13 05:08:10;;;;;;;8.23;2.53;;;;;;;12.87;100.00;98909.84;4358373;32;20057;-79
2022/05/13 05:10:38;;;;;;;5.30;2.10;;;;;;;12.85;100.00;98874.19;4359870;32;20431;-80
2022/05/13 05:13:07;;;;;;;8.43;3.62;;;;;;;13.11;100.00;98907.44;4368666;32;20070;-81
2022/05/13 05:15:36;;;;;;;14.02;3.22;;;;;;;13.19;100.00;98914.22;4370067;32;20047;-80
2022/05/13 05:18:03;;;;;;;5.60;2.30;;;;;;;13.10;100.00;98876.09;4364619;32;20040;-83
2022/05/13 05:20:30;;;;;;;5.93;2.83;;;;;;;13.39;100.00;98911.53;4362413;32;20426;-85
2022/05/13 05:22:57;;;;;;;11.93;2.78;;;;;;;13.48;100.00;98919.13;4369473;32;20051;-81
2022/05/13 05:25:28;;;;;;;5.15;1.90;;;;;;;13.47;100.00;98895.87;4369815;32;20085;-84
2022/05/13 05:27:56;;;;;;;7.12;2.12;;;;;;;13.64;100.00;98904.47;4373386;32;20048;-85
2022/05/13 05:30:24;;;;;;;4.47;2.60;;;;;;;13.71;100.00;98918.56;4374253;32;20471;-85
2022/05/13 05:32:51;;;;;;;4.72;1.80;;;;;;;13.73;100.00;98910.97;4368904;32;20066;-85
2022/05/13 05:35:21;;;;;;;9.25;2.12;;;;;;;13.59;100.00;98872.03;4358160;32;20035;-81
2022/05/13 05:37:48;;;;;;;9.82;1.60;;;;;;;13.93;100.00;98922.84;4373499;32;20065;-81
2022/05/13 05:40:16;;;;;;;12.50;2.30;;;;;;;14.03;100.00;98917.41;4373661;32;20069;-79
2022/05/13 05:42:43;;;;;;;5.15;1.48;;;;;;;13.95;100.00;98889.00;4372246;32;20036;-78
2022/05/13 05:45:13;;;;;;;2.05;1.37;;;;;;;14.19;100.00;98917.38;4356576;32;20057;-80
2022/05/13 05:47:47;;;;;;;10.73;2.03;;;;;;;14.06;100.00;98884.38;4373027;32;20035;-81
2022/05/13 05:50:17;;;;;;;11.57;1.50;;;;;;;14.23;100.00;98896.75;4372862;32;20113;-78
2022/05/13 05:52:44;;;;;;;12.37;1.45;;;;;;;14.41;100.00;98925.94;4370080;32;20077;-79
2022/05/13 05:57:59;;;;;;;13.38;2.12;;;;;;;14.33;100.00;98896.72;4366584;32;20051;-78
2022/05/13 06:00:27;;;;;;;2.85;1.40;;;;;;;14.65;100.00;98930.75;4355485;32;20166;-78
2022/05/13 06:02:54;;;;;;;3.75;1.17;;;;;;;14.53;100.00;98891.22;4368988;32;20081;-74
2022/05/13 06:05:21;;;;;;;2.15;1.05;;;;;;;14.81;100.00;98924.16;4369410;32;20093;-74
2022/05/13 06:07:49;;;;;;;5.72;2.20;;;;;;;14.61;100.00;98892.53;4368914;32;20048;-74
2022/05/13 06:10:17;;;;;;;3.40;1.50;;;;;;;14.90;100.00;98918.94;4354614;32;20117;-74
2022/05/13 06:12:44;;;;;;;2.17;1.10;;;;;;;14.95;100.00;98920.78;4352678;32;20060;-74
2022/05/13 06:15:11;;;;;;;3.30;1.60;;;;;;;15.15;100.00;98934.22;4364971;32;20051;-74
2022/05/13 06:17:49;;;;;;;2.00;1.40;;;;;;;15.24;100.00;98931.72;4372315;32;20036;-74
2022/05/13 06:20:18;;;;;;;9.90;1.05;;;;;;;15.19;100.00;98939.88;4357930;32;20109;-73
2022/05/13 06:22:45;;;;;;;1.67;1.17;;;;;;;15.21;100.00;98929.59;4369924;32;20069;-74
2022/05/13 06:25:14;;;;;;;2.70;1.30;;;;;;;15.20;100.00;98942.31;4371784;32;20085;-73
2022/05/13 06:27:41;;;;;;;4.53;2.30;;;;;;;15.19;100.00;98905.47;4358164;32;20047;-74
2022/05/13 06:30:11;;;;;;;2.42;0.98;;;;;;;15.38;100.00;98927.28;4358636;32;20069;-73
2022/05/13 06:32:38;;;;;;;7.43;1.60;;;;;;;15.24;100.00;98902.69;4370217;32;20110;-73
2022/05/13 06:35:05;;;;;;;4.62;1.92;;;;;;;15.52;100.00;98943.69;4357022;32;20580;-73
2022/05/13 06:37:32;;;;;;;1.73;1.48;;;;;;;15.49;100.00;98938.84;4357768;32;20072;-76
2022/05/13 06:39:58;;;;;;;5.22;1.37;;;;;;;15.66;100.00;98948.47;4371773;32;20051;-75
2022/05/13 06:42:25;;;;;;;1.00;0.88;;;;;;;15.68;100.00;98932.72;4357569;32;20170;-77
2022/05/13 06:44:51;;;;;;;1.17;1.08;;;;;;;15.71;96.25;98941.09;4374077;32;20057;-76
2022/05/13 06:47:24;;;;;;;2.10;1.33;;;;;;;15.57;100.00;98924.69;4360848;32;20053;-73
2022/05/13 06:49:50;;;;;;;3.28;0.93;;;;;;;15.64;100.00;98923.53;4371915;32;20405;-77
2022/05/13 06:52:17;;;;;;;1.33;1.17;;;;;;;15.67;94.63;98912.09;4362661;32;20101;-78
2022/05/13 06:54:43;;;;;;;3.70;1.00;;;;;;;15.84;86.65;98920.63;4355952;32;20406;-75
2022/05/13 06:57:10;;;;;;;2.92;1.12;;;;;;;16.01;87.00;98922.12;4371978;32;20068;-76
2022/05/13 06:59:37;;;;;;;1.75;1.00;;;;;;;16.08;88.08;98908.97;4375058;32;20091;-76
2022/05/13 07:02:05;;;;;;;2.25;1.05;;;;;;;16.14;90.32;98924.13;4371200;32;20039;-76
2022/05/13 07:04:32;;;;;;;3.10;1.10;;;;;;;15.76;92.44;98885.94;4371150;32;20374;-80
2022/05/13 07:07:01;;;;;;;6.03;1.77;;;;;;;16.10;95.98;98893.22;4370730;32;20035;-76
2022/05/13 07:09:27;;;;;;;1.00;0.98;;;;;;;15.98;87.08;98880.84;4370280;32;20066;-77
2022/05/13 07:12:00;;;;;;;5.95;0.90;;;;;;;16.21;80.04;98911.03;4370342;32;20066;-77
2022/05/13 07:14:27;;;;;;;8.98;1.17;;;;;;;16.22;83.37;98901.75;4370906;32;20094;-84
2022/05/13 07:16:54;;;;;;;2.37;1.08;;;;;;;16.27;84.56;98898.97;4371436;32;20035;-78
2022/05/13 07:19:22;;;;;;;2.83;0.98;;;;;;;16.22;86.05;98885.47;4369763;32;20365;-76
2022/05/13 07:21:50;;;;;;;8.48;1.35;;;;;;;16.05;85.01;98858.78;4371450;32;20052;-78
2022/05/13 07:24:16;;;;;;;2.53;0.77;;;;;;;16.40;84.54;98883.06;4371385;32;20086;-77
2022/05/13 07:26:43;;;;;;;2.25;0.75;;;;;;;16.52;86.15;98888.87;4357050;32;20452;-77
2022/05/13 07:29:09;;;;;;;2.72;0.85;;;;;;;16.43;84.94;98858.81;4371124;32;20063;-79
2022/05/13 07:31:36;;;;;;;0.80;0.70;;;;;;;16.50;87.90;98855.78;4371121;32;20349;-78
2022/05/13 07:34:02;;;;;;;7.72;1.10;;;;;;;16.67;79.14;98891.41;4356753;32;20048;-77
2022/05/13 07:36:29;;;;;;;2.28;1.25;;;;;;;16.68;80.84;98882.13;4369663;32;20095;-82
2022/05/13 07:41:41;;;;;;;4.85;0.88;;;;;;;16.88;79.15;98902.00;4361830;32;20048;-78
2022/05/13 07:44:08;;;;;;;13.02;0.90;;;;;;;16.78;78.16;98893.97;4358688;32;20024;-79
2022/05/13 07:46:34;;;;;;;4.87;0.88;;;;;;;16.87;82.21;98889.53;4375071;32;20106;-75
2022/05/13 07:49:01;;;;;;;4.95;0.90;;;;;;;16.91;82.42;98885.09;4374791;32;20146;-75
2022/05/13 07:51:27;;;;;;;2.22;1.20;;;;;;;16.73;76.18;98850.56;4371159;32;20027;-76
2022/05/13 07:53:54;;;;;;;5.10;0.90;;;;;;;16.92;69.83;98894.88;4372903;32;20115;-79
2022/05/13 07:56:20;;;;;;;3.65;1.10;;;;;;;16.99;66.14;98868.13;4362430;32;20146;-78
2022/05/13 07:58:47;;;;;;;3.20;1.08;;;;;;;16.89;72.88;98860.13;4376236;32;20551;-77
2022/05/13 08:01:14;;;;;;;2.45;1.40;;;;;;;16.95;76.56;98888.84;4374053;32;20039;-78
2022/05/13 08:03:49;;;;;;;1.02;1.00;;;;;;;17.03;70.12;98890.91;4377140;32;20177;-76
2022/05/13 08:06:15;;;;;;;3.55;0.70;;;;;;;17.08;68.62;98853.84;4376288;32;20444;-80
2022/05/13 08:08:45;;;;;;;3.70;1.00;;;;;;;17.36;67.57;98888.22;4360331;32;20092;-76
2022/05/13 08:11:14;;;;;;;2.65;1.00;;;;;;;17.29;69.67;98878.81;4373856;32;20367;-75
2022/05/13 08:13:41;;;;;;;13.27;1.05;;;;;;;17.19;66.50;98852.59;4374079;32;20099;-74
2022/05/13 08:16:12;;;;;;;6.12;1.27;;;;;;;17.49;65.40;98888.56;4375417;32;20419;-77
2022/05/13 08:18:39;;;;;;;3.17;1.23;;;;;;;17.48;63.14;98892.38;4363425;32;20039;-75
2022/05/13 08:21:07;;;;;;;0.80;0.80;;;;;;;17.32;57.68;98873.56;4372911;32;20063;-77
2022/05/13 08:23:34;;;;;;;1.50;1.08;;;;;;;17.40;54.08;98881.03;4361885;32;20389;-75
2022/05/13 08:26:01;;;;;;;1.25;0.90;;;;;;;17.41;57.12;98871.78;4369574;32;20360;-77
2022/05/13 08:28:27;;;;;;;4.65;1.10;;;;;;;17.32;54.14;98870.84;4367684;32;20081;-78
2022/05/13 08:30:54;;;;;;;6.12;0.90;;;;;;;17.34;55.96;98887.72;4363852;32;20114;-75
2022/05/13 08:33:21;;;;;;;5.68;1.10;;;;;;;17.48;59.41;98876.03;4357575;32;20067;-75
2022/05/13 08:35:51;;;;;;;5.87;1.00;;;;;;;17.40;59.49;98837.50;4356562;32;20040;-75
2022/05/13 08:38:21;;;;;;;6.87;1.35;;;;;;;17.55;60.96;98838.34;4361044;32;20227;-76
2022/05/13 08:40:49;;;;;;;0.88;0.75;;;;;;;17.60;59.28;98841.78;4355364;32;20370;-77
2022/05/13 08:43:49;;;;;;;3.28;1.00;;;;;;;17.75;59.79;98859.72;4342497;33;20189;-76
2022/05/13 08:46:16;;;;;;;1.60;1.50;;;;;;;17.97;60.80;98863.72;4354145;32;20473;-77
2022/05/13 08:48:54;;;;;;;19.58;1.25;;;;;;;18.17;59.01;98869.88;4357931;32;20048;-76
2022/05/13 08:51:30;;;;;;;1.85;1.20;;;;;;;18.22;56.81;98864.31;4358683;32;20036;-76
2022/05/13 08:54:09;;;;;;;3.65;0.98;;;;;;;18.19;53.67;98824.03;4357391;32;20142;-81
2022/05/13 08:56:37;;;;;;;1.77;1.10;;;;;;;18.23;56.51;98827.78;4358763;32;20106;-76
2022/05/13 08:59:10;;;;;;;1.17;0.88;;;;;;;18.44;56.40;98849.94;4357546;32;20035;-77
2022/05/13 09:01:45;;;;;;;4.32;1.30;;;;;;;18.31;52.14;98873.37;4360893;32;20095;-77
2022/05/13 09:04:34;;;;;;;7.32;2.17;;;;;;;18.25;54.08;98863.69;4370505;32;20069;-76
2022/05/13 09:07:05;;;;;;;5.87;1.30;;;;;;;18.34;54.17;98848.25;4358632;32;20046;-79
2022/05/13 09:09:32;;;;;;;9.07;1.30;;;;;;;18.25;55.10;98806.47;4359231;32;20341;-77
2022/05/13 09:12:04;;;;;;;4.25;1.58;;;;;;;18.35;55.69;98811.72;4356452;33;20032;-76
2022/05/13 09:14:40;;;;;;;13.43;1.52;;;;;;;18.80;56.06;98838.25;4355926;33;20357;-76
2022/05/13 09:17:25;;;;;;;3.22;1.17;;;;;;;18.81;54.73;98797.03;4357027;32;20263;-76
2022/05/13 09:19:58;;;;;;;6.28;1.65;;;;;;;18.86;53.58;98831.59;4371018;32;20065;-77
2022/05/13 09:22:58;;;;;;;13.35;1.65;;;;;;;19.11;52.53;98819.22;4371915;32;20065;-78
2022/05/13 09:25:33;;;;;;;1.55;0.90;;;;;;;19.36;51.22;98827.87;4373007;32;20452;-78
2022/05/13 09:28:06;;;;;;;3.45;1.23;;;;;;;19.24;49.84;98807.44;4371294;32;20032;-77
2022/05/13 09:30:55;;;;;;;3.40;1.10;;;;;;;19.17;52.26;98819.91;4372545;32;20043;-76
2022/05/13 09:33:30;;;;;;;2.65;1.30;;;;;;;19.40;50.83;98823.41;4358786;32;20032;-81
2022/05/13 09:36:04;;;;;;;8.68;2.42;;;;;;;18.97;51.58;98837.56;4369956;32;20081;-76
2022/05/13 09:38:40;;;;;;;2.30;1.12;;;;;;;18.97;48.98;98829.38;4359595;32;20027;-76
2022/05/13 09:41:10;;;;;;;2.72;1.20;;;;;;;18.95;50.55;98790.72;4371441;32;20125;-78
2022/05/13 09:43:43;;;;;;;4.00;1.10;;;;;;;19.32;50.24;98810.50;4361292;32;20044;-77
2022/05/13 09:46:22;;;;;;;4.47;1.65;;;;;;;19.34;50.22;98813.75;4372807;32;20035;-76
2022/05/13 09:49:05;;;;;;;6.28;1.30;;;;;;;19.50;50.22;98801.31;4370340;32;20115;-78
2022/05/13 09:51:57;;;;;;;3.80;1.20;;;;;;;19.46;46.83;98783.94;4371191;32;20047;-77
2022/05/13 09:54:38;;;;;;;10.52;1.87;;;;;;;19.56;47.07;98805.50;4367059;32;20057;-77
2022/05/13 09:57:14;;;;;;;6.20;1.13;;;;;;;19.43;47.25;98768.16;4369572;32;20047;-77
2022/05/13 09:59:45;;;;;;;2.58;1.23;;;;;;;19.11;46.80;98821.16;4353576;32;20161;-76
2022/05/13 10:02:41;;;;;;;3.07;1.90;;;;;;;19.34;47.77;98797.37;4353415;33;20069;-77
2022/05/13 10:05:16;;;;;;;4.10;1.60;;;;;;;19.52;47.90;98796.31;4352194;33;20197;-77
2022/05/13 10:07:51;;;;;;;2.15;1.73;;;;;;;19.40;47.71;98779.72;4352900;32;20061;-77
2022/05/13 10:16:16;;;;;;;4.37;1.60;;;;;;;19.50;47.67;98784.91;4358013;32;20044;-76
2022/05/13 10:19:25;;;;;;;4.47;1.12;;;;;;;19.93;46.97;98778.81;4342005;32;20098;-78
2022/05/13 10:22:33;;;;;;;5.05;1.58;;;;;;;19.88;46.57;98740.72;4355366;32;20061;-78
2022/05/13 10:25:18;;;;;;;3.80;1.00;;;;;;;20.10;45.56;98779.97;4309588;33;20049;-76
2022/05/13 10:28:00;;;;;;;7.47;1.50;;;;;;;20.05;46.70;98774.66;4311109;33;20175;-76
2022/05/13 10:30:35;;;;;;;3.58;1.95;;;;;;;19.70;47.53;98733.56;4310949;33;20036;-77
2022/05/13 10:33:07;;;;;;;1.50;1.40;;;;;;;19.98;47.75;98771.63;4310330;33;20063;-81
2022/05/13 10:35:39;;;;;;;;;;;;;;;19.64;48.92;98734.84;4320794;33;20757;-77
2022/05/13 10:38:12;;;;;;;;;;;;;;;19.77;48.86;98766.72;4325811;33;19936;-77
2022/05/13 10:40:43;;;;;;;1.17;1.10;;;;;;;20.11;47.53;98766.00;4325073;33;19939;-77
2022/05/13 10:43:34;;;;;;;3.00;1.23;;;;;;;20.07;45.02;98747.81;4323392;33;20036;-78
2022/05/13 10:46:13;;;;;;;2.27;1.40;;;;;;;20.13;44.80;98771.12;4324262;33;20048;-77
2022/05/13 10:48:40;;;;;;;4.75;1.25;;;;;;;19.94;46.89;98734.00;4323478;33;20048;-78
2022/05/13 10:51:17;;;;;;;1.75;1.08;;;;;;;20.43;44.72;98755.72;4324197;33;20094;-77
2022/05/13 10:54:02;;;;;;;3.15;1.20;;;;;;;20.26;42.40;98756.53;4325688;33;20067;-78
2022/05/13 10:57:08;;;;;;;4.05;2.53;;;;;;;20.29;42.50;98755.88;4322230;33;20060;-78
2022/05/13 10:59:54;;;;;;;1.40;0.90;;;;;;;20.70;41.61;98736.59;4346379;33;20077;-77
2022/05/13 11:03:03;;;;;;;6.78;2.12;;;;;;;21.09;41.64;98710.09;4356177;32;20056;-77
2022/05/13 11:05:59;;;;;;;2.60;1.95;;;;;;;21.77;39.54;98760.25;4355650;32;20495;-75
2022/05/13 11:08:53;;;;;;;8.95;6.18;;;;;;;21.75;40.31;98743.34;4356653;32;20048;-78
2022/05/13 11:11:40;;;;;;;4.00;1.83;;;;;;;21.85;38.96;98741.34;4356687;32;20062;-76
2022/05/13 11:14:21;;;;;;;4.03;1.87;;;;;;;22.17;38.57;98730.81;4354778;32;20101;-82
2022/05/13 11:16:54;;;;;;;7.32;1.73;;;;;;;21.80;38.36;98771.69;4342438;33;20027;-77
2022/05/13 11:19:20;;;;;;;1.70;1.20;;;;;;;21.33;40.33;98743.19;4353409;32;20044;-77
2022/05/13 11:22:11;;;;;;;7.15;1.20;;;;;;;21.33;39.07;98702.12;4341355;33;20211;-83
2022/05/13 11:27:41;;;;;;;3.03;1.20;;;;;;;22.47;36.62;98717.88;4339831;33;20078;-78
2022/05/13 11:30:17;;;;;;;5.75;1.33;;;;;;;22.27;36.49;98719.44;4341611;33;20117;-78
2022/05/13 11:32:52;;;;;;;4.85;1.67;;;;;;;21.68;37.07;98706.63;4341409;33;20047;-80
2022/05/13 11:35:36;;;;;;;2.65;1.37;;;;;;;22.06;37.90;98698.31;4339957;33;20099;-77
2022/05/13 11:38:24;;;;;;;4.30;1.00;;;;;;;22.39;36.66;98708.56;4341322;33;20032;-77
2022/05/13 11:41:11;;;;;;;3.50;1.30;;;;;;;21.88;37.61;98718.78;4340986;33;20093;-77
2022/05/13 11:43:49;;;;;;;1.83;1.40;;;;;;;21.24;38.86;98750.63;4340551;33;20157;-77
2022/05/13 11:46:35;;;;;;;7.45;2.15;;;;;;;20.92;39.42;98705.47;4341378;33;20481;-76
2022/05/13 11:49:17;;;;;;;12.60;1.60;;;;;;;21.13;40.08;98705.59;4340674;33;20052;-77
2022/05/13 11:51:44;;;;;;;1.80;1.33;;;;;;;20.91;40.53;98680.06;4339902;33;20053;-78
2022/05/13 11:54:18;;;;;;;5.37;1.45;;;;;;;21.68;39.86;98693.72;4340131;33;20024;-77
2022/05/13 11:56:46;;;;;;;8.60;1.90;;;;;;;22.18;38.76;98699.50;4341162;33;20048;-78
2022/05/13 11:59:42;;;;;;;0.98;0.88;;;;;;;21.98;38.90;98674.50;4338503;32;20056;-77
2022/05/13 12:02:33;;;;;;;15.43;1.50;;;;;;;21.50;38.33;98700.47;4328598;33;20381;-76
2022/05/13 12:05:05;;;;;;;7.07;2.10;;;;;;;22.08;38.59;98700.72;4341724;33;20056;-77
2022/05/13 12:07:49;;;;;;;2.55;1.40;;;;;;;22.12;38.16;98683.28;4341079;33;20061;-77
2022/05/13 12:10:18;;;;;;;2.35;1.58;;;;;;;22.11;37.77;98703.63;4338975;33;20056;-77
2022/05/13 12:13:05;;;;;;;7.18;2.65;;;;;;;21.86;38.15;98699.09;4340708;33;20056;-77
2022/05/13 12:16:09;;;;;;;1.40;1.40;;;;;;;21.89;38.10;98654.59;4340949;33;20060;-78
2022/05/13 12:18:51;;;;;;;11.30;1.42;;;;;;;22.45;38.38;98668.81;4340844;33;20040;-77